sensor_id;sensor_type;location;lat;lon;timestamp;P1;durP1;ratioP1;P2;durP2;ratioP2
20008;SDS011;10165;42.662;23.260;2022-07-06T00:00:50;9.57;;;6.60;;
20008;SDS011;10165;42.662;23.260;2022-07-06T00:03:17;9.97;;;7.27;;
20008;SDS011;10165;42.662;23.260;2022-07-06T00:05:44;8.47;;;6.67;;
20008;SDS011;10165;42.662;23.260;2022-07-06T00:08:10;11.00;;;7.47;;
20008;SDS011;10165;42.662;23.260;2022-07-06T00:10:38;12.00;;;8.07;;
20008;SDS011;10165;42.662;23.260;2022-07-06T00:13:04;10.17;;;7.07;;
20008;SDS011;10165;42.662;23.260;2022-07-06T00:15:31;9.87;;;6.80;;
20008;SDS011;10165;42.662;23.260;2022-07-06T00:17:58;11.47;;;7.30;;
20008;SDS011;10165;42.662;23.260;2022-07-06T00:20:25;11.87;;;7.63;;
20008;SDS011;10165;42.662;23.260;2022-07-06T00:22:52;10.83;;;6.57;;
20008;SDS011;10165;42.662;23.260;2022-07-06T00:25:19;10.53;;;7.23;;
20008;SDS011;10165;42.662;23.260;2022-07-06T00:27:45;9.10;;;7.10;;
20008;SDS011;10165;42.662;23.260;2022-07-06T00:30:12;11.03;;;7.17;;
20008;SDS011;10165;42.662;23.260;2022-07-06T00:32:39;7.87;;;6.30;;
20008;SDS011;10165;42.662;23.260;2022-07-06T00:35:06;8.17;;;6.93;;
20008;SDS011;10165;42.662;23.260;2022-07-06T00:37:33;7.63;;;6.13;;
20008;SDS011;10165;42.662;23.260;2022-07-06T00:40:00;9.60;;;7.20;;
20008;SDS011;10165;42.662;23.260;2022-07-06T00:42:27;18.57;;;7.00;;
20008;SDS011;10165;42.662;23.260;2022-07-06T00:44:54;7.67;;;6.53;;
20008;SDS011;10165;42.662;23.260;2022-07-06T00:47:21;9.87;;;7.43;;
20008;SDS011;10165;42.662;23.260;2022-07-06T00:49:47;10.53;;;6.73;;
20008;SDS011;10165;42.662;23.260;2022-07-06T00:52:32;9.53;;;6.40;;
20008;SDS011;10165;42.662;23.260;2022-07-06T00:54:59;8.30;;;6.73;;
20008;SDS011;10165;42.662;23.260;2022-07-06T00:57:28;8.37;;;6.73;;
20008;SDS011;10165;42.662;23.260;2022-07-06T00:59:55;8.70;;;6.93;;
20008;SDS011;10165;42.662;23.260;2022-07-06T01:02:23;7.20;;;6.07;;
20008;SDS011;10165;42.662;23.260;2022-07-06T01:04:49;8.97;;;7.03;;
20008;SDS011;10165;42.662;23.260;2022-07-06T01:07:16;10.33;;;6.30;;
20008;SDS011;10165;42.662;23.260;2022-07-06T01:09:43;8.30;;;6.80;;
20008;SDS011;10165;42.662;23.260;2022-07-06T01:12:10;9.33;;;6.83;;
20008;SDS011;10165;42.662;23.260;2022-07-06T01:14:37;8.13;;;7.10;;
20008;SDS011;10165;42.662;23.260;2022-07-06T01:17:04;12.40;;;7.17;;
20008;SDS011;10165;42.662;23.260;2022-07-06T01:19:32;22.07;;;7.30;;
20008;SDS011;10165;42.662;23.260;2022-07-06T01:21:58;14.37;;;7.33;;
20008;SDS011;10165;42.662;23.260;2022-07-06T01:24:26;15.27;;;7.37;;
20008;SDS011;10165;42.662;23.260;2022-07-06T01:26:53;10.03;;;7.23;;
20008;SDS011;10165;42.662;23.260;2022-07-06T01:29:19;13.57;;;7.13;;
20008;SDS011;10165;42.662;23.260;2022-07-06T01:31:47;10.87;;;7.13;;
20008;SDS011;10165;42.662;23.260;2022-07-06T01:34:15;8.17;;;6.73;;
20008;SDS011;10165;42.662;23.260;2022-07-06T01:36:43;11.00;;;6.80;;
20008;SDS011;10165;42.662;23.260;2022-07-06T01:39:10;8.20;;;6.30;;
20008;SDS011;10165;42.662;23.260;2022-07-06T01:41:37;9.20;;;7.40;;
20008;SDS011;10165;42.662;23.260;2022-07-06T01:44:04;9.53;;;7.27;;
20008;SDS011;10165;42.662;23.260;2022-07-06T01:46:31;9.23;;;6.80;;
20008;SDS011;10165;42.662;23.260;2022-07-06T01:48:58;7.77;;;6.90;;
20008;SDS011;10165;42.662;23.260;2022-07-06T01:51:25;10.43;;;7.70;;
20008;SDS011;10165;42.662;23.260;2022-07-06T01:53:52;8.57;;;6.83;;
20008;SDS011;10165;42.662;23.260;2022-07-06T01:56:19;7.80;;;6.73;;
20008;SDS011;10165;42.662;23.260;2022-07-06T01:58:46;11.47;;;7.83;;
20008;SDS011;10165;42.662;23.260;2022-07-06T02:01:18;9.60;;;6.97;;
20008;SDS011;10165;42.662;23.260;2022-07-06T02:03:46;12.63;;;7.70;;
20008;SDS011;10165;42.662;23.260;2022-07-06T02:06:12;11.63;;;7.33;;
20008;SDS011;10165;42.662;23.260;2022-07-06T02:08:40;7.80;;;6.57;;
20008;SDS011;10165;42.662;23.260;2022-07-06T02:11:08;9.90;;;7.03;;
20008;SDS011;10165;42.662;23.260;2022-07-06T02:13:37;8.77;;;6.70;;
20008;SDS011;10165;42.662;23.260;2022-07-06T02:16:04;8.23;;;7.20;;
20008;SDS011;10165;42.662;23.260;2022-07-06T02:18:31;7.57;;;6.40;;
20008;SDS011;10165;42.662;23.260;2022-07-06T02:20:58;13.37;;;6.93;;
20008;SDS011;10165;42.662;23.260;2022-07-06T02:23:25;8.80;;;7.03;;
20008;SDS011;10165;42.662;23.260;2022-07-06T02:25:52;10.50;;;7.07;;
20008;SDS011;10165;42.662;23.260;2022-07-06T02:28:19;10.43;;;6.80;;
20008;SDS011;10165;42.662;23.260;2022-07-06T02:30:46;8.90;;;7.40;;
20008;SDS011;10165;42.662;23.260;2022-07-06T02:33:13;8.87;;;7.33;;
20008;SDS011;10165;42.662;23.260;2022-07-06T02:35:40;8.90;;;7.30;;
20008;SDS011;10165;42.662;23.260;2022-07-06T02:38:09;13.40;;;7.13;;
20008;SDS011;10165;42.662;23.260;2022-07-06T02:40:36;13.83;;;7.10;;
20008;SDS011;10165;42.662;23.260;2022-07-06T02:43:04;9.80;;;6.93;;
20008;SDS011;10165;42.662;23.260;2022-07-06T02:45:31;8.17;;;7.10;;
20008;SDS011;10165;42.662;23.260;2022-07-06T02:47:58;10.13;;;8.03;;
20008;SDS011;10165;42.662;23.260;2022-07-06T02:50:25;9.03;;;6.97;;
20008;SDS011;10165;42.662;23.260;2022-07-06T02:52:52;8.43;;;6.53;;
20008;SDS011;10165;42.662;23.260;2022-07-06T02:55:18;8.13;;;6.80;;
20008;SDS011;10165;42.662;23.260;2022-07-06T02:57:45;10.53;;;7.17;;
20008;SDS011;10165;42.662;23.260;2022-07-06T03:00:12;12.23;;;6.93;;
20008;SDS011;10165;42.662;23.260;2022-07-06T03:02:39;10.10;;;7.80;;
20008;SDS011;10165;42.662;23.260;2022-07-06T03:05:06;9.93;;;7.80;;
20008;SDS011;10165;42.662;23.260;2022-07-06T03:07:33;9.77;;;7.40;;
20008;SDS011;10165;42.662;23.260;2022-07-06T03:10:00;9.93;;;7.90;;
20008;SDS011;10165;42.662;23.260;2022-07-06T03:12:27;13.57;;;8.10;;
20008;SDS011;10165;42.662;23.260;2022-07-06T03:14:54;9.03;;;7.30;;
20008;SDS011;10165;42.662;23.260;2022-07-06T03:17:21;10.83;;;7.47;;
20008;SDS011;10165;42.662;23.260;2022-07-06T03:19:47;7.47;;;6.20;;
20008;SDS011;10165;42.662;23.260;2022-07-06T03:22:14;6.73;;;5.70;;
20008;SDS011;10165;42.662;23.260;2022-07-06T03:24:41;8.43;;;5.40;;
20008;SDS011;10165;42.662;23.260;2022-07-06T03:27:08;8.03;;;5.63;;
20008;SDS011;10165;42.662;23.260;2022-07-06T03:29:35;6.50;;;5.37;;
20008;SDS011;10165;42.662;23.260;2022-07-06T03:32:01;6.47;;;4.80;;
20008;SDS011;10165;42.662;23.260;2022-07-06T03:34:29;8.67;;;5.23;;
20008;SDS011;10165;42.662;23.260;2022-07-06T03:36:56;8.67;;;4.40;;
20008;SDS011;10165;42.662;23.260;2022-07-06T03:39:23;5.97;;;4.93;;
20008;SDS011;10165;42.662;23.260;2022-07-06T03:41:49;5.47;;;4.70;;
20008;SDS011;10165;42.662;23.260;2022-07-06T03:44:16;5.67;;;4.53;;
20008;SDS011;10165;42.662;23.260;2022-07-06T03:46:43;7.10;;;4.20;;
20008;SDS011;10165;42.662;23.260;2022-07-06T03:49:09;6.00;;;4.10;;
20008;SDS011;10165;42.662;23.260;2022-07-06T03:51:36;6.47;;;4.70;;
20008;SDS011;10165;42.662;23.260;2022-07-06T03:54:04;9.87;;;5.03;;
20008;SDS011;10165;42.662;23.260;2022-07-06T03:56:30;10.97;;;5.20;;
20008;SDS011;10165;42.662;23.260;2022-07-06T03:59:00;6.77;;;4.13;;
20008;SDS011;10165;42.662;23.260;2022-07-06T04:01:28;7.67;;;5.07;;
20008;SDS011;10165;42.662;23.260;2022-07-06T04:03:56;6.17;;;4.90;;
20008;SDS011;10165;42.662;23.260;2022-07-06T04:06:23;5.93;;;4.47;;
20008;SDS011;10165;42.662;23.260;2022-07-06T04:08:50;8.23;;;4.40;;
20008;SDS011;10165;42.662;23.260;2022-07-06T04:11:17;5.27;;;4.63;;
20008;SDS011;10165;42.662;23.260;2022-07-06T04:13:43;7.23;;;4.60;;
20008;SDS011;10165;42.662;23.260;2022-07-06T04:16:10;6.17;;;4.27;;
20008;SDS011;10165;42.662;23.260;2022-07-06T04:18:37;5.37;;;4.30;;
20008;SDS011;10165;42.662;23.260;2022-07-06T04:21:04;5.70;;;4.10;;
20008;SDS011;10165;42.662;23.260;2022-07-06T04:23:31;8.10;;;3.90;;
20008;SDS011;10165;42.662;23.260;2022-07-06T04:25:57;7.73;;;3.50;;
20008;SDS011;10165;42.662;23.260;2022-07-06T04:28:24;6.17;;;3.63;;
20008;SDS011;10165;42.662;23.260;2022-07-06T04:30:51;13.57;;;4.13;;
20008;SDS011;10165;42.662;23.260;2022-07-06T04:33:18;5.43;;;3.97;;
20008;SDS011;10165;42.662;23.260;2022-07-06T04:35:45;7.00;;;3.80;;
20008;SDS011;10165;42.662;23.260;2022-07-06T04:38:11;7.00;;;3.73;;
20008;SDS011;10165;42.662;23.260;2022-07-06T04:40:38;5.73;;;3.90;;
20008;SDS011;10165;42.662;23.260;2022-07-06T04:43:05;6.47;;;3.93;;
20008;SDS011;10165;42.662;23.260;2022-07-06T04:45:32;7.13;;;4.33;;
20008;SDS011;10165;42.662;23.260;2022-07-06T04:47:58;8.37;;;4.40;;
20008;SDS011;10165;42.662;23.260;2022-07-06T04:50:25;7.73;;;4.60;;
20008;SDS011;10165;42.662;23.260;2022-07-06T04:52:52;6.37;;;4.27;;
20008;SDS011;10165;42.662;23.260;2022-07-06T04:55:18;8.80;;;5.63;;
20008;SDS011;10165;42.662;23.260;2022-07-06T04:57:45;9.90;;;6.37;;
20008;SDS011;10165;42.662;23.260;2022-07-06T05:00:12;9.87;;;6.00;;
20008;SDS011;10165;42.662;23.260;2022-07-06T05:02:39;11.33;;;6.13;;
20008;SDS011;10165;42.662;23.260;2022-07-06T05:05:06;12.50;;;6.60;;
20008;SDS011;10165;42.662;23.260;2022-07-06T05:07:35;11.30;;;6.83;;
20008;SDS011;10165;42.662;23.260;2022-07-06T05:10:07;14.30;;;7.17;;
20008;SDS011;10165;42.662;23.260;2022-07-06T05:12:37;8.63;;;5.97;;
20008;SDS011;10165;42.662;23.260;2022-07-06T05:15:05;13.27;;;6.77;;
20008;SDS011;10165;42.662;23.260;2022-07-06T05:17:32;15.73;;;6.10;;
20008;SDS011;10165;42.662;23.260;2022-07-06T05:19:59;10.43;;;6.50;;
20008;SDS011;10165;42.662;23.260;2022-07-06T05:22:26;9.67;;;7.03;;
20008;SDS011;10165;42.662;23.260;2022-07-06T05:24:52;9.07;;;5.90;;
20008;SDS011;10165;42.662;23.260;2022-07-06T05:27:19;7.63;;;6.00;;
20008;SDS011;10165;42.662;23.260;2022-07-06T05:29:46;12.83;;;6.87;;
20008;SDS011;10165;42.662;23.260;2022-07-06T05:32:13;10.57;;;6.57;;
20008;SDS011;10165;42.662;23.260;2022-07-06T05:34:39;10.80;;;7.00;;
20008;SDS011;10165;42.662;23.260;2022-07-06T05:37:06;9.57;;;5.93;;
20008;SDS011;10165;42.662;23.260;2022-07-06T05:39:33;10.37;;;6.17;;
20008;SDS011;10165;42.662;23.260;2022-07-06T05:42:00;13.27;;;5.50;;
20008;SDS011;10165;42.662;23.260;2022-07-06T05:44:27;10.70;;;6.07;;
20008;SDS011;10165;42.662;23.260;2022-07-06T05:46:53;7.37;;;5.60;;
20008;SDS011;10165;42.662;23.260;2022-07-06T05:49:40;9.03;;;5.60;;
20008;SDS011;10165;42.662;23.260;2022-07-06T05:52:25;9.03;;;5.60;;
20008;SDS011;10165;42.662;23.260;2022-07-06T05:54:53;11.17;;;5.60;;
20008;SDS011;10165;42.662;23.260;2022-07-06T05:57:19;8.90;;;5.23;;
20008;SDS011;10165;42.662;23.260;2022-07-06T05:59:46;12.07;;;6.40;;
20008;SDS011;10165;42.662;23.260;2022-07-06T06:02:13;9.50;;;6.10;;
20008;SDS011;10165;42.662;23.260;2022-07-06T06:04:40;10.43;;;5.97;;
20008;SDS011;10165;42.662;23.260;2022-07-06T06:07:07;8.23;;;6.17;;
20008;SDS011;10165;42.662;23.260;2022-07-06T06:09:33;8.13;;;5.13;;
20008;SDS011;10165;42.662;23.260;2022-07-06T06:12:03;7.43;;;5.23;;
20008;SDS011;10165;42.662;23.260;2022-07-06T06:14:30;7.87;;;5.27;;
20008;SDS011;10165;42.662;23.260;2022-07-06T06:16:57;6.37;;;5.43;;
20008;SDS011;10165;42.662;23.260;2022-07-06T06:19:24;8.10;;;5.60;;
20008;SDS011;10165;42.662;23.260;2022-07-06T06:21:51;7.67;;;5.83;;
20008;SDS011;10165;42.662;23.260;2022-07-06T06:24:18;6.47;;;5.57;;
20008;SDS011;10165;42.662;23.260;2022-07-06T06:26:45;6.70;;;5.57;;
20008;SDS011;10165;42.662;23.260;2022-07-06T06:29:12;7.70;;;5.73;;
20008;SDS011;10165;42.662;23.260;2022-07-06T06:31:39;10.83;;;5.50;;
20008;SDS011;10165;42.662;23.260;2022-07-06T06:34:07;9.43;;;5.70;;
20008;SDS011;10165;42.662;23.260;2022-07-06T06:36:34;7.67;;;5.97;;
20008;SDS011;10165;42.662;23.260;2022-07-06T06:39:00;12.40;;;6.67;;
20008;SDS011;10165;42.662;23.260;2022-07-06T06:41:30;7.73;;;6.03;;
20008;SDS011;10165;42.662;23.260;2022-07-06T06:43:57;10.37;;;6.77;;
20008;SDS011;10165;42.662;23.260;2022-07-06T06:46:28;9.87;;;6.00;;
20008;SDS011;10165;42.662;23.260;2022-07-06T06:48:55;10.23;;;7.03;;
20008;SDS011;10165;42.662;23.260;2022-07-06T06:51:24;10.23;;;6.10;;
20008;SDS011;10165;42.662;23.260;2022-07-06T06:53:50;8.57;;;6.50;;
20008;SDS011;10165;42.662;23.260;2022-07-06T06:56:17;9.67;;;7.27;;
20008;SDS011;10165;42.662;23.260;2022-07-06T06:58:44;12.23;;;7.83;;
20008;SDS011;10165;42.662;23.260;2022-07-06T07:01:31;11.40;;;7.20;;
20008;SDS011;10165;42.662;23.260;2022-07-06T07:03:59;10.60;;;7.37;;
20008;SDS011;10165;42.662;23.260;2022-07-06T07:06:26;11.40;;;8.03;;
20008;SDS011;10165;42.662;23.260;2022-07-06T07:08:52;9.77;;;7.63;;
20008;SDS011;10165;42.662;23.260;2022-07-06T07:11:20;11.80;;;8.20;;
20008;SDS011;10165;42.662;23.260;2022-07-06T07:13:47;12.23;;;8.03;;
20008;SDS011;10165;42.662;23.260;2022-07-06T07:16:14;13.00;;;8.77;;
20008;SDS011;10165;42.662;23.260;2022-07-06T07:18:41;13.53;;;8.60;;
20008;SDS011;10165;42.662;23.260;2022-07-06T07:21:07;12.67;;;8.30;;
20008;SDS011;10165;42.662;23.260;2022-07-06T07:23:34;12.50;;;8.63;;
20008;SDS011;10165;42.662;23.260;2022-07-06T07:26:01;11.43;;;8.87;;
20008;SDS011;10165;42.662;23.260;2022-07-06T07:28:28;12.47;;;8.37;;
20008;SDS011;10165;42.662;23.260;2022-07-06T07:30:54;11.17;;;8.67;;
20008;SDS011;10165;42.662;23.260;2022-07-06T07:33:21;16.63;;;9.20;;
20008;SDS011;10165;42.662;23.260;2022-07-06T07:35:48;11.80;;;8.93;;
20008;SDS011;10165;42.662;23.260;2022-07-06T07:38:15;12.40;;;7.90;;
20008;SDS011;10165;42.662;23.260;2022-07-06T07:40:42;12.63;;;9.20;;
20008;SDS011;10165;42.662;23.260;2022-07-06T07:43:08;12.67;;;9.07;;
20008;SDS011;10165;42.662;23.260;2022-07-06T07:45:35;11.83;;;8.20;;
20008;SDS011;10165;42.662;23.260;2022-07-06T07:48:02;13.80;;;9.00;;
20008;SDS011;10165;42.662;23.260;2022-07-06T07:50:29;12.57;;;9.30;;
20008;SDS011;10165;42.662;23.260;2022-07-06T07:52:56;14.13;;;10.07;;
20008;SDS011;10165;42.662;23.260;2022-07-06T07:55:22;13.30;;;8.70;;
20008;SDS011;10165;42.662;23.260;2022-07-06T07:58:07;12.47;;;9.13;;
20008;SDS011;10165;42.662;23.260;2022-07-06T08:00:35;13.20;;;9.60;;
20008;SDS011;10165;42.662;23.260;2022-07-06T08:03:02;12.40;;;8.53;;
20008;SDS011;10165;42.662;23.260;2022-07-06T08:05:29;15.00;;;9.10;;
20008;SDS011;10165;42.662;23.260;2022-07-06T08:07:55;12.93;;;8.80;;
20008;SDS011;10165;42.662;23.260;2022-07-06T08:10:22;10.10;;;8.00;;
20008;SDS011;10165;42.662;23.260;2022-07-06T08:12:49;11.37;;;7.77;;
20008;SDS011;10165;42.662;23.260;2022-07-06T08:15:16;15.17;;;7.53;;
20008;SDS011;10165;42.662;23.260;2022-07-06T08:17:42;10.10;;;7.43;;
20008;SDS011;10165;42.662;23.260;2022-07-06T08:20:09;12.03;;;8.60;;
20008;SDS011;10165;42.662;23.260;2022-07-06T08:22:37;12.60;;;8.27;;
20008;SDS011;10165;42.662;23.260;2022-07-06T08:25:04;11.60;;;8.40;;
20008;SDS011;10165;42.662;23.260;2022-07-06T08:27:31;15.47;;;9.80;;
20008;SDS011;10165;42.662;23.260;2022-07-06T08:29:58;15.47;;;8.60;;
20008;SDS011;10165;42.662;23.260;2022-07-06T08:32:26;14.50;;;8.90;;
20008;SDS011;10165;42.662;23.260;2022-07-06T08:35:13;12.27;;;8.77;;
20008;SDS011;10165;42.662;23.260;2022-07-06T08:37:40;13.00;;;8.67;;
20008;SDS011;10165;42.662;23.260;2022-07-06T08:40:07;12.63;;;8.87;;
20008;SDS011;10165;42.662;23.260;2022-07-06T08:42:35;11.07;;;8.40;;
20008;SDS011;10165;42.662;23.260;2022-07-06T08:45:03;13.23;;;9.73;;
20008;SDS011;10165;42.662;23.260;2022-07-06T08:47:32;12.20;;;9.67;;
20008;SDS011;10165;42.662;23.260;2022-07-06T08:50:02;9.23;;;8.03;;
20008;SDS011;10165;42.662;23.260;2022-07-06T08:52:31;11.17;;;7.93;;
20008;SDS011;10165;42.662;23.260;2022-07-06T08:54:59;14.67;;;8.80;;
20008;SDS011;10165;42.662;23.260;2022-07-06T08:57:27;12.97;;;9.23;;
20008;SDS011;10165;42.662;23.260;2022-07-06T08:59:54;12.57;;;9.33;;
20008;SDS011;10165;42.662;23.260;2022-07-06T09:02:23;11.47;;;8.00;;
20008;SDS011;10165;42.662;23.260;2022-07-06T09:04:53;14.97;;;8.87;;
20008;SDS011;10165;42.662;23.260;2022-07-06T09:07:22;13.50;;;8.43;;
20008;SDS011;10165;42.662;23.260;2022-07-06T09:10:10;11.03;;;8.00;;
20008;SDS011;10165;42.662;23.260;2022-07-06T09:12:37;10.67;;;8.03;;
20008;SDS011;10165;42.662;23.260;2022-07-06T09:15:04;10.17;;;8.00;;
20008;SDS011;10165;42.662;23.260;2022-07-06T09:17:31;11.47;;;8.17;;
20008;SDS011;10165;42.662;23.260;2022-07-06T09:19:58;12.73;;;7.97;;
20008;SDS011;10165;42.662;23.260;2022-07-06T09:22:26;11.87;;;7.90;;
20008;SDS011;10165;42.662;23.260;2022-07-06T09:24:53;10.40;;;7.90;;
20008;SDS011;10165;42.662;23.260;2022-07-06T09:27:29;10.23;;;7.23;;
20008;SDS011;10165;42.662;23.260;2022-07-06T09:29:59;9.83;;;7.90;;
20008;SDS011;10165;42.662;23.260;2022-07-06T09:32:26;11.77;;;8.27;;
20008;SDS011;10165;42.662;23.260;2022-07-06T09:34:53;9.07;;;7.30;;
20008;SDS011;10165;42.662;23.260;2022-07-06T09:37:21;14.90;;;8.27;;
20008;SDS011;10165;42.662;23.260;2022-07-06T09:39:52;10.60;;;8.30;;
20008;SDS011;10165;42.662;23.260;2022-07-06T09:42:23;15.87;;;8.87;;
20008;SDS011;10165;42.662;23.260;2022-07-06T09:44:52;11.10;;;8.90;;
20008;SDS011;10165;42.662;23.260;2022-07-06T09:47:19;12.87;;;9.20;;
20008;SDS011;10165;42.662;23.260;2022-07-06T09:49:46;13.47;;;9.07;;
20008;SDS011;10165;42.662;23.260;2022-07-06T09:52:16;12.60;;;9.33;;
20008;SDS011;10165;42.662;23.260;2022-07-06T09:54:43;12.10;;;9.00;;
20008;SDS011;10165;42.662;23.260;2022-07-06T09:57:15;14.83;;;10.13;;
20008;SDS011;10165;42.662;23.260;2022-07-06T09:59:41;12.00;;;9.33;;
20008;SDS011;10165;42.662;23.260;2022-07-06T10:02:08;14.63;;;9.40;;
20008;SDS011;10165;42.662;23.260;2022-07-06T10:04:35;13.97;;;9.20;;
20008;SDS011;10165;42.662;23.260;2022-07-06T10:07:02;15.80;;;10.30;;
20008;SDS011;10165;42.662;23.260;2022-07-06T10:09:30;12.93;;;10.30;;
20008;SDS011;10165;42.662;23.260;2022-07-06T10:11:59;13.77;;;8.97;;
20008;SDS011;10165;42.662;23.260;2022-07-06T10:14:28;12.43;;;8.83;;
20008;SDS011;10165;42.662;23.260;2022-07-06T10:16:57;15.30;;;8.60;;
20008;SDS011;10165;42.662;23.260;2022-07-06T10:19:26;13.70;;;9.13;;
20008;SDS011;10165;42.662;23.260;2022-07-06T10:21:54;12.30;;;8.37;;
20008;SDS011;10165;42.662;23.260;2022-07-06T10:24:24;15.57;;;8.57;;
20008;SDS011;10165;42.662;23.260;2022-07-06T10:26:53;12.97;;;9.83;;
20008;SDS011;10165;42.662;23.260;2022-07-06T10:29:21;11.90;;;9.60;;
20008;SDS011;10165;42.662;23.260;2022-07-06T10:31:48;15.87;;;9.20;;
20008;SDS011;10165;42.662;23.260;2022-07-06T10:34:15;13.27;;;8.93;;
20008;SDS011;10165;42.662;23.260;2022-07-06T10:36:47;12.30;;;8.77;;
20008;SDS011;10165;42.662;23.260;2022-07-06T10:39:17;13.87;;;10.53;;
20008;SDS011;10165;42.662;23.260;2022-07-06T10:45:09;10.23;;;8.10;;
20008;SDS011;10165;42.662;23.260;2022-07-06T10:47:37;11.57;;;9.00;;
20008;SDS011;10165;42.662;23.260;2022-07-06T10:50:04;10.67;;;8.27;;
20008;SDS011;10165;42.662;23.260;2022-07-06T10:57:55;12.13;;;8.57;;
20008;SDS011;10165;42.662;23.260;2022-07-06T11:00:22;15.37;;;9.67;;
20008;SDS011;10165;42.662;23.260;2022-07-06T11:02:49;14.00;;;9.30;;
20008;SDS011;10165;42.662;23.260;2022-07-06T11:16:38;13.17;;;9.83;;
20008;SDS011;10165;42.662;23.260;2022-07-06T11:24:11;15.13;;;10.60;;
20008;SDS011;10165;42.662;23.260;2022-07-06T11:26:44;14.73;;;10.23;;
20008;SDS011;10165;42.662;23.260;2022-07-06T11:29:16;12.27;;;9.60;;
20008;SDS011;10165;42.662;23.260;2022-07-06T11:31:45;12.20;;;9.83;;
20008;SDS011;10165;42.662;23.260;2022-07-06T11:34:16;14.47;;;9.13;;
20008;SDS011;10165;42.662;23.260;2022-07-06T11:36:48;11.87;;;9.27;;
20008;SDS011;10165;42.662;23.260;2022-07-06T11:39:15;10.23;;;9.10;;
20008;SDS011;10165;42.662;23.260;2022-07-06T11:41:42;11.13;;;9.13;;
20008;SDS011;10165;42.662;23.260;2022-07-06T11:44:16;17.60;;;9.07;;
20008;SDS011;10165;42.662;23.260;2022-07-06T11:46:43;10.83;;;8.90;;
20008;SDS011;10165;42.662;23.260;2022-07-06T11:49:10;11.77;;;9.20;;
20008;SDS011;10165;42.662;23.260;2022-07-06T11:51:38;14.83;;;9.03;;
20008;SDS011;10165;42.662;23.260;2022-07-06T11:54:16;13.27;;;9.63;;
20008;SDS011;10165;42.662;23.260;2022-07-06T11:57:07;11.77;;;8.93;;
20008;SDS011;10165;42.662;23.260;2022-07-06T11:59:34;12.47;;;8.50;;
20008;SDS011;10165;42.662;23.260;2022-07-06T12:02:04;14.03;;;9.47;;
20008;SDS011;10165;42.662;23.260;2022-07-06T12:04:32;11.97;;;9.53;;
20008;SDS011;10165;42.662;23.260;2022-07-06T12:07:01;11.60;;;9.17;;
20008;SDS011;10165;42.662;23.260;2022-07-06T12:09:33;10.97;;;9.43;;
20008;SDS011;10165;42.662;23.260;2022-07-06T12:12:01;13.40;;;9.87;;
20008;SDS011;10165;42.662;23.260;2022-07-06T12:14:30;13.10;;;9.77;;
20008;SDS011;10165;42.662;23.260;2022-07-06T12:17:10;10.83;;;8.77;;
20008;SDS011;10165;42.662;23.260;2022-07-06T12:19:41;9.63;;;8.63;;
20008;SDS011;10165;42.662;23.260;2022-07-06T12:22:09;10.87;;;8.83;;
20008;SDS011;10165;42.662;23.260;2022-07-06T12:24:37;8.40;;;7.63;;
20008;SDS011;10165;42.662;23.260;2022-07-06T12:27:15;8.50;;;7.60;;
20008;SDS011;10165;42.662;23.260;2022-07-06T12:29:44;12.50;;;7.73;;
20008;SDS011;10165;42.662;23.260;2022-07-06T12:32:19;8.37;;;6.97;;
20008;SDS011;10165;42.662;23.260;2022-07-06T12:37:55;12.17;;;7.83;;
20008;SDS011;10165;42.662;23.260;2022-07-06T12:40:25;8.77;;;6.83;;
20008;SDS011;10165;42.662;23.260;2022-07-06T12:42:56;7.83;;;6.70;;
20008;SDS011;10165;42.662;23.260;2022-07-06T12:45:26;6.73;;;6.03;;
20008;SDS011;10165;42.662;23.260;2022-07-06T12:48:00;6.10;;;5.27;;
20008;SDS011;10165;42.662;23.260;2022-07-06T12:50:32;10.47;;;6.70;;
20008;SDS011;10165;42.662;23.260;2022-07-06T12:53:03;7.47;;;6.13;;
20008;SDS011;10165;42.662;23.260;2022-07-06T12:55:31;7.07;;;6.37;;
20008;SDS011;10165;42.662;23.260;2022-07-06T12:57:58;6.53;;;5.90;;
20008;SDS011;10165;42.662;23.260;2022-07-06T13:00:26;7.57;;;6.47;;
20008;SDS011;10165;42.662;23.260;2022-07-06T13:02:53;10.67;;;6.20;;
20008;SDS011;10165;42.662;23.260;2022-07-06T13:05:36;8.30;;;6.10;;
20008;SDS011;10165;42.662;23.260;2022-07-06T13:08:05;6.87;;;5.93;;
20008;SDS011;10165;42.662;23.260;2022-07-06T13:10:32;5.90;;;5.30;;
20008;SDS011;10165;42.662;23.260;2022-07-06T13:13:00;5.67;;;5.03;;
20008;SDS011;10165;42.662;23.260;2022-07-06T13:15:26;5.33;;;4.50;;
20008;SDS011;10165;42.662;23.260;2022-07-06T13:17:53;8.70;;;5.77;;
20008;SDS011;10165;42.662;23.260;2022-07-06T13:20:20;7.90;;;4.90;;
20008;SDS011;10165;42.662;23.260;2022-07-06T13:22:47;5.70;;;4.63;;
20008;SDS011;10165;42.662;23.260;2022-07-06T13:25:14;4.20;;;3.80;;
20008;SDS011;10165;42.662;23.260;2022-07-06T13:27:41;6.37;;;4.07;;
20008;SDS011;10165;42.662;23.260;2022-07-06T13:30:08;4.10;;;3.70;;
20008;SDS011;10165;42.662;23.260;2022-07-06T13:32:36;4.67;;;3.93;;
20008;SDS011;10165;42.662;23.260;2022-07-06T13:35:03;4.97;;;4.47;;
20008;SDS011;10165;42.662;23.260;2022-07-06T13:37:31;4.13;;;3.67;;
20008;SDS011;10165;42.662;23.260;2022-07-06T13:39:59;4.87;;;3.83;;
20008;SDS011;10165;42.662;23.260;2022-07-06T13:42:26;4.33;;;3.90;;
20008;SDS011;10165;42.662;23.260;2022-07-06T13:44:53;3.57;;;3.27;;
20008;SDS011;10165;42.662;23.260;2022-07-06T13:47:20;8.30;;;2.80;;
20008;SDS011;10165;42.662;23.260;2022-07-06T13:49:46;3.07;;;2.77;;
20008;SDS011;10165;42.662;23.260;2022-07-06T13:52:14;3.13;;;2.83;;
20008;SDS011;10165;42.662;23.260;2022-07-06T13:54:41;5.60;;;2.50;;
20008;SDS011;10165;42.662;23.260;2022-07-06T13:57:08;3.17;;;2.50;;
20008;SDS011;10165;42.662;23.260;2022-07-06T13:59:37;3.93;;;2.60;;
20008;SDS011;10165;42.662;23.260;2022-07-06T14:02:04;4.27;;;2.40;;
20008;SDS011;10165;42.662;23.260;2022-07-06T14:04:31;3.53;;;2.47;;
20008;SDS011;10165;42.662;23.260;2022-07-06T14:06:58;2.47;;;2.27;;
20008;SDS011;10165;42.662;23.260;2022-07-06T14:09:25;2.40;;;2.07;;
20008;SDS011;10165;42.662;23.260;2022-07-06T14:11:52;1.90;;;1.80;;
20008;SDS011;10165;42.662;23.260;2022-07-06T14:14:19;4.13;;;2.17;;
20008;SDS011;10165;42.662;23.260;2022-07-06T14:16:46;2.53;;;2.10;;
20008;SDS011;10165;42.662;23.260;2022-07-06T14:19:13;2.60;;;2.40;;
20008;SDS011;10165;42.662;23.260;2022-07-06T14:21:46;5.17;;;2.60;;
20008;SDS011;10165;42.662;23.260;2022-07-06T14:24:13;5.17;;;2.50;;
20008;SDS011;10165;42.662;23.260;2022-07-06T14:26:40;2.87;;;2.57;;
20008;SDS011;10165;42.662;23.260;2022-07-06T14:29:07;2.67;;;2.27;;
20008;SDS011;10165;42.662;23.260;2022-07-06T14:31:34;2.67;;;2.47;;
20008;SDS011;10165;42.662;23.260;2022-07-06T14:34:01;2.30;;;2.13;;
20008;SDS011;10165;42.662;23.260;2022-07-06T14:36:28;2.30;;;2.10;;
20008;SDS011;10165;42.662;23.260;2022-07-06T14:38:54;2.40;;;2.20;;
20008;SDS011;10165;42.662;23.260;2022-07-06T14:41:21;2.60;;;2.40;;
20008;SDS011;10165;42.662;23.260;2022-07-06T14:43:48;2.80;;;2.60;;
20008;SDS011;10165;42.662;23.260;2022-07-06T14:46:15;2.57;;;2.37;;
20008;SDS011;10165;42.662;23.260;2022-07-06T14:48:42;3.33;;;3.03;;
20008;SDS011;10165;42.662;23.260;2022-07-06T14:51:09;6.97;;;2.57;;
20008;SDS011;10165;42.662;23.260;2022-07-06T14:53:36;2.43;;;2.30;;
20008;SDS011;10165;42.662;23.260;2022-07-06T14:56:03;4.30;;;3.20;;
20008;SDS011;10165;42.662;23.260;2022-07-06T14:58:30;3.93;;;2.30;;
20008;SDS011;10165;42.662;23.260;2022-07-06T15:00:57;2.37;;;2.17;;